sensor_id;sensor_type;location;lat;lon;timestamp;P1;durP1;ratioP1;P2;durP2;ratioP2
47239;SDS011;32978;53.586;10.052;2022-10-31T00:02:54;117.10;;;108.15;;
47239;SDS011;32978;53.586;10.052;2022-10-31T00:07:53;114.63;;;106.32;;
47239;SDS011;32978;53.586;10.052;2022-10-31T00:12:50;121.25;;;112.18;;
47239;SDS011;32978;53.586;10.052;2022-10-31T00:17:47;112.10;;;104.22;;
47239;SDS011;32978;53.586;10.052;2022-10-31T00:22:43;115.10;;;107.10;;
47239;SDS011;32978;53.586;10.052;2022-10-31T00:27:39;114.22;;;105.95;;
47239;SDS011;32978;53.586;10.052;2022-10-31T00:32:35;112.03;;;103.85;;
47239;SDS011;32978;53.586;10.052;2022-10-31T00:37:32;114.93;;;107.03;;
47239;SDS011;32978;53.586;10.052;2022-10-31T00:42:28;116.10;;;108.07;;
47239;SDS011;32978;53.586;10.052;2022-10-31T00:47:24;110.45;;;103.10;;
47239;SDS011;32978;53.586;10.052;2022-10-31T00:52:20;106.20;;;98.72;;
47239;SDS011;32978;53.586;10.052;2022-10-31T00:57:16;108.15;;;99.95;;
47239;SDS011;32978;53.586;10.052;2022-10-31T01:02:13;109.90;;;101.78;;
47239;SDS011;32978;53.586;10.052;2022-10-31T01:07:09;112.72;;;104.75;;
47239;SDS011;32978;53.586;10.052;2022-10-31T01:12:07;113.93;;;105.10;;
47239;SDS011;32978;53.586;10.052;2022-10-31T01:17:03;103.32;;;95.70;;
47239;SDS011;32978;53.586;10.052;2022-10-31T01:22:00;100.68;;;93.30;;
47239;SDS011;32978;53.586;10.052;2022-10-31T01:26:56;96.85;;;88.82;;
47239;SDS011;32978;53.586;10.052;2022-10-31T01:31:52;93.88;;;86.05;;
47239;SDS011;32978;53.586;10.052;2022-10-31T01:36:48;93.75;;;85.78;;
47239;SDS011;32978;53.586;10.052;2022-10-31T01:41:48;89.95;;;81.85;;
47239;SDS011;32978;53.586;10.052;2022-10-31T01:51:49;90.72;;;82.13;;
47239;SDS011;32978;53.586;10.052;2022-10-31T01:56:47;96.50;;;86.53;;
47239;SDS011;32978;53.586;10.052;2022-10-31T02:01:45;96.85;;;87.85;;
47239;SDS011;32978;53.586;10.052;2022-10-31T02:11:57;100.50;;;91.32;;
47239;SDS011;32978;53.586;10.052;2022-10-31T02:16:54;101.30;;;91.90;;
47239;SDS011;32978;53.586;10.052;2022-10-31T02:22:00;103.03;;;93.93;;
47239;SDS011;32978;53.586;10.052;2022-10-31T02:27:07;108.55;;;97.80;;
47239;SDS011;32978;53.586;10.052;2022-10-31T02:32:10;107.85;;;97.68;;
47239;SDS011;32978;53.586;10.052;2022-10-31T02:37:12;109.65;;;100.05;;
47239;SDS011;32978;53.586;10.052;2022-10-31T02:42:14;112.75;;;102.03;;
47239;SDS011;32978;53.586;10.052;2022-10-31T02:57:15;108.28;;;98.13;;
47239;SDS011;32978;53.586;10.052;2022-10-31T03:02:19;103.65;;;94.40;;
47239;SDS011;32978;53.586;10.052;2022-10-31T03:17:35;104.47;;;94.93;;
47239;SDS011;32978;53.586;10.052;2022-10-31T03:22:31;102.77;;;93.63;;
47239;SDS011;32978;53.586;10.052;2022-10-31T03:27:29;106.43;;;96.90;;
47239;SDS011;32978;53.586;10.052;2022-10-31T03:32:34;107.78;;;98.15;;
47239;SDS011;32978;53.586;10.052;2022-10-31T03:37:33;103.53;;;93.95;;
47239;SDS011;32978;53.586;10.052;2022-10-31T03:42:30;106.80;;;97.03;;
47239;SDS011;32978;53.586;10.052;2022-10-31T03:47:27;104.53;;;94.38;;
47239;SDS011;32978;53.586;10.052;2022-10-31T03:52:35;106.97;;;96.78;;
47239;SDS011;32978;53.586;10.052;2022-10-31T03:57:35;104.63;;;94.15;;
47239;SDS011;32978;53.586;10.052;2022-10-31T04:02:33;104.25;;;94.20;;
47239;SDS011;32978;53.586;10.052;2022-10-31T04:07:32;101.72;;;92.25;;
47239;SDS011;32978;53.586;10.052;2022-10-31T04:12:29;103.97;;;94.18;;
47239;SDS011;32978;53.586;10.052;2022-10-31T04:17:27;99.00;;;89.28;;
47239;SDS011;32978;53.586;10.052;2022-10-31T04:22:25;106.32;;;95.53;;
47239;SDS011;32978;53.586;10.052;2022-10-31T04:27:21;100.45;;;91.28;;
47239;SDS011;32978;53.586;10.052;2022-10-31T04:32:18;103.50;;;93.47;;
47239;SDS011;32978;53.586;10.052;2022-10-31T04:37:14;107.32;;;96.78;;
47239;SDS011;32978;53.586;10.052;2022-10-31T04:42:10;104.35;;;93.88;;
47239;SDS011;32978;53.586;10.052;2022-10-31T04:47:06;108.13;;;97.47;;
47239;SDS011;32978;53.586;10.052;2022-10-31T04:52:03;102.38;;;91.72;;
47239;SDS011;32978;53.586;10.052;2022-10-31T04:56:59;98.28;;;88.43;;
47239;SDS011;32978;53.586;10.052;2022-10-31T05:01:55;101.13;;;90.55;;
47239;SDS011;32978;53.586;10.052;2022-10-31T05:06:51;102.75;;;92.07;;
47239;SDS011;32978;53.586;10.052;2022-10-31T05:11:48;102.20;;;91.70;;
47239;SDS011;32978;53.586;10.052;2022-10-31T05:16:44;99.00;;;88.47;;
47239;SDS011;32978;53.586;10.052;2022-10-31T05:21:40;96.80;;;85.97;;
47239;SDS011;32978;53.586;10.052;2022-10-31T05:26:36;97.75;;;87.38;;
47239;SDS011;32978;53.586;10.052;2022-10-31T05:31:33;101.78;;;90.90;;
47239;SDS011;32978;53.586;10.052;2022-10-31T05:36:29;97.72;;;87.43;;
47239;SDS011;32978;53.586;10.052;2022-10-31T05:41:25;97.93;;;87.32;;
47239;SDS011;32978;53.586;10.052;2022-10-31T05:46:21;101.75;;;91.13;;
47239;SDS011;32978;53.586;10.052;2022-10-31T05:51:18;106.70;;;95.57;;
47239;SDS011;32978;53.586;10.052;2022-10-31T05:56:14;101.05;;;89.97;;
47239;SDS011;32978;53.586;10.052;2022-10-31T06:01:10;102.40;;;91.45;;
47239;SDS011;32978;53.586;10.052;2022-10-31T06:06:06;99.95;;;89.75;;
47239;SDS011;32978;53.586;10.052;2022-10-31T06:11:03;104.28;;;91.47;;
47239;SDS011;32978;53.586;10.052;2022-10-31T06:15:59;108.13;;;95.75;;
47239;SDS011;32978;53.586;10.052;2022-10-31T06:20:55;98.75;;;88.45;;
47239;SDS011;32978;53.586;10.052;2022-10-31T06:25:52;104.35;;;88.57;;
47239;SDS011;32978;53.586;10.052;2022-10-31T06:30:48;101.25;;;90.05;;
47239;SDS011;32978;53.586;10.052;2022-10-31T06:35:45;103.78;;;89.10;;
47239;SDS011;32978;53.586;10.052;2022-10-31T06:40:41;109.28;;;92.53;;
47239;SDS011;32978;53.586;10.052;2022-10-31T06:45:37;114.05;;;94.00;;
47239;SDS011;32978;53.586;10.052;2022-10-31T06:50:34;103.72;;;92.20;;
47239;SDS011;32978;53.586;10.052;2022-10-31T06:55:30;104.38;;;90.97;;
47239;SDS011;32978;53.586;10.052;2022-10-31T07:00:27;100.10;;;89.45;;
47239;SDS011;32978;53.586;10.052;2022-10-31T07:05:24;101.93;;;90.97;;
47239;SDS011;32978;53.586;10.052;2022-10-31T07:10:20;99.93;;;89.63;;
47239;SDS011;32978;53.586;10.052;2022-10-31T07:15:17;101.40;;;91.43;;
47239;SDS011;32978;53.586;10.052;2022-10-31T07:20:13;103.13;;;92.13;;
47239;SDS011;32978;53.586;10.052;2022-10-31T07:25:09;103.90;;;93.45;;
47239;SDS011;32978;53.586;10.052;2022-10-31T07:30:06;110.18;;;99.35;;
47239;SDS011;32978;53.586;10.052;2022-10-31T07:35:03;106.78;;;96.15;;
47239;SDS011;32978;53.586;10.052;2022-10-31T07:39:59;107.45;;;97.15;;
47239;SDS011;32978;53.586;10.052;2022-10-31T07:44:55;106.50;;;96.25;;
47239;SDS011;32978;53.586;10.052;2022-10-31T07:49:53;109.35;;;98.68;;
47239;SDS011;32978;53.586;10.052;2022-10-31T07:54:49;103.75;;;94.07;;
47239;SDS011;32978;53.586;10.052;2022-10-31T07:59:45;105.13;;;95.50;;
47239;SDS011;32978;53.586;10.052;2022-10-31T08:04:41;98.78;;;88.95;;
47239;SDS011;32978;53.586;10.052;2022-10-31T08:09:38;99.70;;;90.75;;
47239;SDS011;32978;53.586;10.052;2022-10-31T08:14:34;99.18;;;90.03;;
47239;SDS011;32978;53.586;10.052;2022-10-31T08:19:30;104.53;;;94.13;;
47239;SDS011;32978;53.586;10.052;2022-10-31T08:24:26;100.18;;;90.93;;
47239;SDS011;32978;53.586;10.052;2022-10-31T08:29:23;101.85;;;92.68;;
47239;SDS011;32978;53.586;10.052;2022-10-31T08:34:19;101.07;;;91.50;;
47239;SDS011;32978;53.586;10.052;2022-10-31T08:39:15;103.57;;;93.85;;
47239;SDS011;32978;53.586;10.052;2022-10-31T08:44:11;103.22;;;94.10;;
47239;SDS011;32978;53.586;10.052;2022-10-31T08:49:08;104.43;;;94.43;;
47239;SDS011;32978;53.586;10.052;2022-10-31T08:54:04;105.57;;;96.30;;
47239;SDS011;32978;53.586;10.052;2022-10-31T08:59:00;105.32;;;96.53;;
47239;SDS011;32978;53.586;10.052;2022-10-31T09:03:57;103.25;;;94.10;;
47239;SDS011;32978;53.586;10.052;2022-10-31T09:08:53;107.38;;;97.90;;
47239;SDS011;32978;53.586;10.052;2022-10-31T09:13:49;95.28;;;87.57;;
47239;SDS011;32978;53.586;10.052;2022-10-31T09:18:47;97.25;;;88.60;;
47239;SDS011;32978;53.586;10.052;2022-10-31T09:23:44;103.05;;;94.13;;
47239;SDS011;32978;53.586;10.052;2022-10-31T09:28:40;105.90;;;96.97;;
47239;SDS011;32978;53.586;10.052;2022-10-31T09:33:36;102.82;;;94.45;;
47239;SDS011;32978;53.586;10.052;2022-10-31T09:38:33;104.30;;;95.85;;
47239;SDS011;32978;53.586;10.052;2022-10-31T09:53:41;103.78;;;95.50;;
47239;SDS011;32978;53.586;10.052;2022-10-31T09:58:40;102.70;;;95.32;;
47239;SDS011;32978;53.586;10.052;2022-10-31T10:03:40;102.50;;;95.03;;
47239;SDS011;32978;53.586;10.052;2022-10-31T10:08:38;98.43;;;91.45;;
47239;SDS011;32978;53.586;10.052;2022-10-31T10:28:36;75.82;;;70.30;;
47239;SDS011;32978;53.586;10.052;2022-10-31T10:33:46;70.25;;;65.32;;
47239;SDS011;32978;53.586;10.052;2022-10-31T10:38:53;72.32;;;67.07;;
47239;SDS011;32978;53.586;10.052;2022-10-31T10:43:51;69.25;;;64.32;;
47239;SDS011;32978;53.586;10.052;2022-10-31T10:53:51;63.53;;;58.78;;
47239;SDS011;32978;53.586;10.052;2022-10-31T10:59:03;67.10;;;61.80;;
47239;SDS011;32978;53.586;10.052;2022-10-31T11:03:59;65.47;;;60.22;;
47239;SDS011;32978;53.586;10.052;2022-10-31T11:08:57;61.65;;;56.83;;
47239;SDS011;32978;53.586;10.052;2022-10-31T11:14:05;47.60;;;44.08;;
47239;SDS011;32978;53.586;10.052;2022-10-31T11:19:20;46.55;;;42.83;;
47239;SDS011;32978;53.586;10.052;2022-10-31T11:24:18;42.53;;;39.35;;
47239;SDS011;32978;53.586;10.052;2022-10-31T11:34:13;51.38;;;47.28;;
47239;SDS011;32978;53.586;10.052;2022-10-31T11:39:15;53.88;;;49.88;;
47239;SDS011;32978;53.586;10.052;2022-10-31T11:44:19;63.33;;;58.67;;
47239;SDS011;32978;53.586;10.052;2022-10-31T11:49:35;72.93;;;67.65;;
47239;SDS011;32978;53.586;10.052;2022-10-31T11:54:41;68.22;;;63.08;;
47239;SDS011;32978;53.586;10.052;2022-10-31T11:59:38;55.33;;;50.75;;
47239;SDS011;32978;53.586;10.052;2022-10-31T12:04:37;50.17;;;45.67;;
47239;SDS011;32978;53.586;10.052;2022-10-31T12:09:35;45.40;;;41.30;;
47239;SDS011;32978;53.586;10.052;2022-10-31T12:20:21;54.10;;;49.40;;
47239;SDS011;32978;53.586;10.052;2022-10-31T12:31:09;45.55;;;40.97;;
47239;SDS011;32978;53.586;10.052;2022-10-31T12:35:48;46.03;;;38.55;;
47239;SDS011;32978;53.586;10.052;2022-10-31T13:01:34;45.28;;;40.67;;
47239;SDS011;32978;53.586;10.052;2022-10-31T13:06:33;50.10;;;45.63;;
47239;SDS011;32978;53.586;10.052;2022-10-31T13:11:45;50.28;;;45.08;;
47239;SDS011;32978;53.586;10.052;2022-10-31T13:16:44;49.92;;;45.63;;
47239;SDS011;32978;53.586;10.052;2022-10-31T13:21:45;51.20;;;46.50;;
47239;SDS011;32978;53.586;10.052;2022-10-31T13:26:49;48.47;;;44.20;;
47239;SDS011;32978;53.586;10.052;2022-10-31T13:31:46;51.15;;;46.85;;
47239;SDS011;32978;53.586;10.052;2022-10-31T13:36:48;57.13;;;52.42;;
47239;SDS011;32978;53.586;10.052;2022-10-31T13:46:42;53.85;;;49.40;;
47239;SDS011;32978;53.586;10.052;2022-10-31T13:51:39;41.20;;;37.50;;
47239;SDS011;32978;53.586;10.052;2022-10-31T13:56:35;35.80;;;32.33;;
47239;SDS011;32978;53.586;10.052;2022-10-31T14:01:33;32.97;;;29.88;;
47239;SDS011;32978;53.586;10.052;2022-10-31T14:06:37;33.63;;;30.25;;
47239;SDS011;32978;53.586;10.052;2022-10-31T14:11:34;29.73;;;26.83;;
47239;SDS011;32978;53.586;10.052;2022-10-31T14:16:32;32.97;;;29.67;;
47239;SDS011;32978;53.586;10.052;2022-10-31T14:26:39;31.67;;;28.77;;
47239;SDS011;32978;53.586;10.052;2022-10-31T14:31:36;35.45;;;32.00;;
47239;SDS011;32978;53.586;10.052;2022-10-31T14:36:42;34.40;;;31.50;;
47239;SDS011;32978;53.586;10.052;2022-10-31T14:41:51;41.92;;;38.00;;
47239;SDS011;32978;53.586;10.052;2022-10-31T14:52:12;46.28;;;42.28;;
47239;SDS011;32978;53.586;10.052;2022-10-31T14:57:15;49.92;;;45.45;;
47239;SDS011;32978;53.586;10.052;2022-10-31T15:02:14;49.65;;;45.85;;
47239;SDS011;32978;53.586;10.052;2022-10-31T15:07:16;52.58;;;48.20;;
47239;SDS011;32978;53.586;10.052;2022-10-31T15:12:22;56.75;;;52.50;;
47239;SDS011;32978;53.586;10.052;2022-10-31T15:17:19;58.65;;;54.00;;
47239;SDS011;32978;53.586;10.052;2022-10-31T15:22:20;66.40;;;61.17;;
47239;SDS011;32978;53.586;10.052;2022-10-31T15:27:18;67.47;;;62.47;;
47239;SDS011;32978;53.586;10.052;2022-10-31T15:32:25;65.03;;;60.22;;
47239;SDS011;32978;53.586;10.052;2022-10-31T15:37:22;70.28;;;65.10;;
47239;SDS011;32978;53.586;10.052;2022-10-31T15:42:21;74.97;;;69.53;;
47239;SDS011;32978;53.586;10.052;2022-10-31T15:47:19;72.70;;;67.55;;
47239;SDS011;32978;53.586;10.052;2022-10-31T15:57:32;75.80;;;70.18;;
47239;SDS011;32978;53.586;10.052;2022-10-31T16:02:28;79.78;;;73.78;;
47239;SDS011;32978;53.586;10.052;2022-10-31T16:07:25;76.72;;;71.10;;
47239;SDS011;32978;53.586;10.052;2022-10-31T16:12:23;84.60;;;78.18;;
47239;SDS011;32978;53.586;10.052;2022-10-31T16:17:20;80.90;;;75.10;;
47239;SDS011;32978;53.586;10.052;2022-10-31T16:22:27;85.13;;;78.45;;
47239;SDS011;32978;53.586;10.052;2022-10-31T16:27:25;85.95;;;79.88;;
47239;SDS011;32978;53.586;10.052;2022-10-31T16:32:25;86.22;;;80.15;;
47239;SDS011;32978;53.586;10.052;2022-10-31T16:37:21;91.72;;;84.72;;
47239;SDS011;32978;53.586;10.052;2022-10-31T16:42:18;88.88;;;82.13;;
47239;SDS011;32978;53.586;10.052;2022-10-31T16:47:15;90.07;;;83.50;;
47239;SDS011;32978;53.586;10.052;2022-10-31T16:52:12;88.15;;;81.53;;
47239;SDS011;32978;53.586;10.052;2022-10-31T16:57:12;87.90;;;81.10;;
47239;SDS011;32978;53.586;10.052;2022-10-31T17:02:14;90.47;;;83.68;;
47239;SDS011;32978;53.586;10.052;2022-10-31T17:07:10;88.80;;;82.25;;
47239;SDS011;32978;53.586;10.052;2022-10-31T17:12:09;90.85;;;84.22;;
47239;SDS011;32978;53.586;10.052;2022-10-31T17:17:09;91.35;;;84.53;;
47239;SDS011;32978;53.586;10.052;2022-10-31T17:22:05;91.07;;;84.15;;
47239;SDS011;32978;53.586;10.052;2022-10-31T17:27:02;90.65;;;83.70;;
47239;SDS011;32978;53.586;10.052;2022-10-31T17:31:58;96.18;;;89.07;;
47239;SDS011;32978;53.586;10.052;2022-10-31T17:36:55;94.20;;;86.70;;
47239;SDS011;32978;53.586;10.052;2022-10-31T17:41:52;99.75;;;91.18;;
47239;SDS011;32978;53.586;10.052;2022-10-31T17:46:49;95.47;;;87.95;;
47239;SDS011;32978;53.586;10.052;2022-10-31T17:51:45;100.47;;;92.18;;
47239;SDS011;32978;53.586;10.052;2022-10-31T17:56:41;100.28;;;92.05;;
47239;SDS011;32978;53.586;10.052;2022-10-31T18:01:38;96.85;;;88.90;;
47239;SDS011;32978;53.586;10.052;2022-10-31T18:06:34;101.70;;;93.47;;
47239;SDS011;32978;53.586;10.052;2022-10-31T18:11:30;105.03;;;96.53;;
47239;SDS011;32978;53.586;10.052;2022-10-31T18:16:27;101.70;;;93.07;;
47239;SDS011;32978;53.586;10.052;2022-10-31T18:21:24;100.00;;;92.22;;
47239;SDS011;32978;53.586;10.052;2022-10-31T18:26:20;102.45;;;94.05;;
47239;SDS011;32978;53.586;10.052;2022-10-31T18:31:17;101.78;;;93.63;;
47239;SDS011;32978;53.586;10.052;2022-10-31T18:36:14;103.22;;;95.03;;
47239;SDS011;32978;53.586;10.052;2022-10-31T18:41:10;101.00;;;93.32;;
47239;SDS011;32978;53.586;10.052;2022-10-31T18:46:07;100.45;;;92.78;;
47239;SDS011;32978;53.586;10.052;2022-10-31T18:51:05;100.45;;;93.13;;
47239;SDS011;32978;53.586;10.052;2022-10-31T18:56:05;100.78;;;93.43;;
47239;SDS011;32978;53.586;10.052;2022-10-31T19:01:08;99.85;;;92.38;;
47239;SDS011;32978;53.586;10.052;2022-10-31T19:06:05;105.15;;;97.63;;
47239;SDS011;32978;53.586;10.052;2022-10-31T19:11:02;101.70;;;93.80;;
47239;SDS011;32978;53.586;10.052;2022-10-31T19:16:09;100.05;;;92.68;;
47239;SDS011;32978;53.586;10.052;2022-10-31T19:21:06;98.70;;;91.32;;
47239;SDS011;32978;53.586;10.052;2022-10-31T19:26:02;100.97;;;93.50;;
47239;SDS011;32978;53.586;10.052;2022-10-31T19:30:59;108.22;;;100.07;;
47239;SDS011;32978;53.586;10.052;2022-10-31T19:35:59;105.68;;;97.82;;
47239;SDS011;32978;53.586;10.052;2022-10-31T19:40:56;106.75;;;98.88;;
47239;SDS011;32978;53.586;10.052;2022-10-31T19:45:56;106.50;;;98.50;;
47239;SDS011;32978;53.586;10.052;2022-10-31T19:50:52;100.75;;;93.38;;
47239;SDS011;32978;53.586;10.052;2022-10-31T19:55:53;107.00;;;99.40;;
47239;SDS011;32978;53.586;10.052;2022-10-31T20:00:50;104.32;;;96.80;;
47239;SDS011;32978;53.586;10.052;2022-10-31T20:05:47;104.53;;;97.07;;
47239;SDS011;32978;53.586;10.052;2022-10-31T20:10:56;107.28;;;99.03;;
47239;SDS011;32978;53.586;10.052;2022-10-31T20:15:56;103.07;;;95.47;;
47239;SDS011;32978;53.586;10.052;2022-10-31T20:20:52;106.82;;;98.90;;
47239;SDS011;32978;53.586;10.052;2022-10-31T20:25:49;110.47;;;101.63;;
47239;SDS011;32978;53.586;10.052;2022-10-31T20:30:45;110.60;;;102.57;;
47239;SDS011;32978;53.586;10.052;2022-10-31T20:35:41;111.40;;;102.85;;
47239;SDS011;32978;53.586;10.052;2022-10-31T20:40:37;110.78;;;102.43;;
47239;SDS011;32978;53.586;10.052;2022-10-31T20:45:34;110.47;;;102.35;;
47239;SDS011;32978;53.586;10.052;2022-10-31T20:50:30;112.13;;;103.95;;
47239;SDS011;32978;53.586;10.052;2022-10-31T20:55:26;113.38;;;104.03;;
47239;SDS011;32978;53.586;10.052;2022-10-31T21:00:23;111.70;;;103.50;;
47239;SDS011;32978;53.586;10.052;2022-10-31T21:05:19;108.15;;;99.85;;
47239;SDS011;32978;53.586;10.052;2022-10-31T21:10:15;113.20;;;105.00;;
47239;SDS011;32978;53.586;10.052;2022-10-31T21:15:12;111.88;;;102.65;;
47239;SDS011;32978;53.586;10.052;2022-10-31T21:20:09;109.70;;;100.63;;
47239;SDS011;32978;53.586;10.052;2022-10-31T21:25:06;105.63;;;96.85;;
47239;SDS011;32978;53.586;10.052;2022-10-31T21:30:02;108.68;;;99.93;;
47239;SDS011;32978;53.586;10.052;2022-10-31T21:34:58;105.90;;;97.25;;
47239;SDS011;32978;53.586;10.052;2022-10-31T21:39:54;107.43;;;98.78;;
47239;SDS011;32978;53.586;10.052;2022-10-31T21:44:51;102.80;;;94.38;;
47239;SDS011;32978;53.586;10.052;2022-10-31T21:49:47;111.72;;;101.78;;
47239;SDS011;32978;53.586;10.052;2022-10-31T21:54:43;111.85;;;101.40;;
47239;SDS011;32978;53.586;10.052;2022-10-31T21:59:39;111.72;;;101.85;;
47239;SDS011;32978;53.586;10.052;2022-10-31T22:04:40;105.05;;;95.88;;
47239;SDS011;32978;53.586;10.052;2022-10-31T22:09:37;114.80;;;104.82;;
47239;SDS011;32978;53.586;10.052;2022-10-31T22:14:34;112.70;;;103.13;;
47239;SDS011;32978;53.586;10.052;2022-10-31T22:19:30;115.75;;;106.30;;
47239;SDS011;32978;53.586;10.052;2022-10-31T22:24:26;114.82;;;104.85;;
47239;SDS011;32978;53.586;10.052;2022-10-31T22:29:22;114.07;;;104.72;;
47239;SDS011;32978;53.586;10.052;2022-10-31T22:34:19;117.13;;;107.13;;
47239;SDS011;32978;53.586;10.052;2022-10-31T22:39:15;116.40;;;106.75;;
47239;SDS011;32978;53.586;10.052;2022-10-31T22:44:11;114.00;;;104.75;;
47239;SDS011;32978;53.586;10.052;2022-10-31T22:49:12;115.95;;;106.22;;
47239;SDS011;32978;53.586;10.052;2022-10-31T22:54:15;114.30;;;104.95;;
47239;SDS011;32978;53.586;10.052;2022-10-31T22:59:12;122.35;;;111.82;;
47239;SDS011;32978;53.586;10.052;2022-10-31T23:04:09;116.15;;;106.50;;
47239;SDS011;32978;53.586;10.052;2022-10-31T23:09:12;119.15;;;109.28;;
47239;SDS011;32978;53.586;10.052;2022-10-31T23:14:10;121.20;;;111.10;;
47239;SDS011;32978;53.586;10.052;2022-10-31T23:19:10;122.32;;;112.78;;
47239;SDS011;32978;53.586;10.052;2022-10-31T23:24:06;119.93;;;110.35;;
47239;SDS011;32978;53.586;10.052;2022-10-31T23:29:02;116.93;;;107.63;;
47239;SDS011;32978;53.586;10.052;2022-10-31T23:33:59;113.72;;;104.30;;
47239;SDS011;32978;53.586;10.052;2022-10-31T23:38:55;117.28;;;107.93;;
47239;SDS011;32978;53.586;10.052;2022-10-31T23:43:51;115.38;;;105.93;;
47239;SDS011;32978;53.586;10.052;2022-10-31T23:48:47;114.28;;;105.38;;
47239;SDS011;32978;53.586;10.052;2022-10-31T23:53:44;112.50;;;103.53;;
47239;SDS011;32978;53.586;10.052;2022-10-31T23:58:41;109.90;;;101.53;;
